SCC: Daytona test - Friday times

@>Practice 1: Pos Num Class Team Car Time Gap To 1st Speed --- --- ----- ------------------------------ ----------------- ---------- ------- ------- ------- 1. 38 GS BGB Motorsports ...

@>Practice 1:

Pos Num Class Team                           Car                     Time     Gap  To 1st   Speed
--- --- ----- ------------------------------ ----------------- ---------- ------- ------- -------
 1.  38 GS    BGB Motorsports                Porsche 997         2:02.178                 104.896
 2.  59 GS    Rehagen Racing                 Mustang GT          2:02.225   0.047   0.047 104.856
 3.   5 GS    Blackforest Motorsports        Mustang GT          2:02.570   0.345   0.392 104.561
 4.  79 GS    Kinetic Motorsports            BMW M3              2:02.657   0.087   0.479 104.486
 5. 154 GS    Jim Click Racing               Mustang GT          2:02.727   0.070   0.549 104.427
 6.   3 GS    Blackforest Motorsports        Mustang GT          2:02.740   0.013   0.562 104.416
 7.  91 GS    Automatic Racing               BMW M3              2:02.832   0.092   0.654 104.338
 8.  55 GS    Hyper Sport                    Mustang GT          2:03.089   0.257   0.911 104.120
 9.  99 GS    Automatic Racing               BMW M3              2:03.256   0.167   1.078 103.979
10.  46 GS    Fall-Line Motorsports          BMW M3              2:03.534   0.278   1.356 103.745
11.  83 GS    BGB Motorsports                Porsche 997         2:03.682   0.148   1.504 103.621
12.  28 GS    Fall-Line Motorsports          BMW M3              2:03.795   0.113   1.617 103.526
13.  09 GS    Automatic Racing               BMW M3              2:03.820   0.025   1.642 103.505
14.  41 GS    TRG                            Porsche 997         2:03.821   0.001   1.643 103.504
15.  11 GS    Emerald Hill Motorsports       Mustang GT          2:04.052   0.231   1.874 103.312
16.  88 GS    Ranger Sports Racing           Porsche 996         2:04.306   0.254   2.128 103.100
17.  19 GS    Marcus Motorsports             Porsche 997         2:04.365   0.059   2.187 103.052
18.  23 GS    Wright Motorsports             Porsche 997         2:04.622   0.257   2.444 102.839
19.  52 GS    Rehagen Racing                 Mustang GT          2:04.662   0.040   2.484 102.806
20.  17 GS    CMA Motorsports                Mustang GT          2:04.909   0.247   2.731 102.603
21.  10 GS    Spirit of Daytona Racing       Pontiac GTO         2:05.411   0.502   3.233 102.192
22. 150 GS    Jim Click Racing               Mustang GT          2:05.846   0.435   3.668 101.839
23.  60 GS    Rehagen Racing                 Mustang GT          2:05.869   0.023   3.691 101.820
24. 121 GS    Bodymotion Racing              Porsche 997         2:07.065   1.196   4.887 100.862
25.  20 GS    Marcus Motorsports             Porsche 997         2:07.296   0.231   5.118 100.679
26.  89 GS    Ranger Sports Racing           Porsche 997         2:07.754   0.458   5.576 100.318
27.  07 GS    Cardiosport Racing             Porsche 997         2:07.917   0.163   5.739 100.190
28. 141 ST    ICY/Phoenix Racing             Subaru Legacy       2:10.379   2.462   8.201  98.298
29.  51 ST    Brass Mitchell Racing          Mazda RX-8          2:11.862   1.483   9.684  97.193
30. 111 ST    ICY/Phoenix Racing             Subaru Legacy       2:11.877   0.015   9.699  97.181
31.  75 ST    Compass360 Racing              Acura TSX           2:12.299   0.422  10.121  96.871
32.  01 ST    Georgian Bay Motorsports       Chevrolet Cobalt    2:12.454   0.155  10.276  96.758
33.  80 GS    Kinetic Motorsports            BMW M3              2:12.491   0.037  10.313  96.731
34.  63 ST    Roar Racing                    Mazda RX-8          2:12.563   0.072  10.385  96.679
35.  24 ST    V-Pack Motorsport              BMW 330i            2:12.866   0.303  10.688  96.458
36.  13 ST    Pipelayer Racing               Mazda RX-8          2:13.113   0.247  10.935  96.279
37. 138 ST    GS Motorsports                 Chevrolet Cobalt    2:13.465   0.352  11.287  96.025
38.  50 ST    Brass Mitchell Racing          Mazda RX-8          2:13.530   0.065  11.352  95.978
39.  06 ST    Project Motorsports            Chevrolet Cobalt    2:13.750   0.220  11.572  95.821
40.  49 ST    Brass Mitchell Racing          BMW Z4              2:14.571   0.821  12.393  95.236
41.  53 ST    Predator Auto Sport            Chevrolet Cobalt    2:14.623   0.052  12.445  95.199
42.  43 ST    Team Sahlen                    Mazda RX-8          2:14.906   0.283  12.728  94.999
43. 146 ST    Performance Autosport          Mazda MX-5          2:15.427   0.521  13.249  94.634
44.  62 ST    Roar Racing                    Mazda RX-8          2:15.529   0.102  13.351  94.563
45.  48 ST    Team Cobalt California         Chevrolet Cobalt    2:53.961  38.432  51.783  93.548
46. 183 ST    GS Motorsports                 Chevrolet Cobalt    2:53.993   0.032  51.815  93.425
47. 197 ST    RSR Motorsports                Mini Cooper S       2:54.008   0.015  51.830  93.135
48.  00 ST    Georgian Bay Motorsports       Chevrolet Cobalt    2:54.236   0.228  52.058  93.104
49. 145 ST    Performance Autosport          Mazda MX-5          2:55.323   1.087  53.145  92.777
50. 181 ST    APR Motorsport                 Volkswagen GTI      2:55.477   0.154  53.299  89.869
51. 198 ST    RSR Motorsports                Mini Cooper S       2:55.924   0.447  53.746  88.843
52.  36 ST    SDS Performance Racing         Dodge SRT4          2:56.264   0.340  54.086  87.515
53.  90 GS    Automatic Racing               BMW M3              2:56.508   0.244  54.330  22.377

@>Practice 2:

Pos Num Class Team                           Car                     Time     Gap  To 1st   Speed
--- --- ----- ------------------------------ ----------------- ---------- ------- ------- -------
 1.  60 GS    Rehagen Racing                 Mustang GT          2:01.018                 105.902
 2.  59 GS    Rehagen Racing                 Mustang GT          2:01.335   0.317   0.317 105.625
 3.  83 GS    BGB Motorsports                Porsche 997         2:01.397   0.062   0.379 105.571
 4.   3 GS    Blackforest Motorsports        Mustang GT          2:01.565   0.168   0.547 105.425
 5. 154 GS    Jim Click Racing               Mustang GT          2:01.743   0.178   0.725 105.271
 6.  09 GS    Automatic Racing               BMW M3              2:01.787   0.044   0.769 105.233
 7.  99 GS    Automatic Racing               BMW M3              2:02.461   0.674   1.443 104.654
 8.  46 GS    Fall-Line Motorsports          BMW M3              2:02.510   0.049   1.492 104.612
 9.  41 GS    TRG                            Porsche 997         2:02.614   0.104   1.596 104.523
10.  52 GS    Rehagen Racing                 Mustang GT          2:02.718   0.104   1.700 104.435
11.  23 GS    Wright Motorsports             Porsche 997         2:02.775   0.057   1.757 104.386
12.  28 GS    Fall-Line Motorsports          BMW M3              2:02.784   0.009   1.766 104.378
13.  55 GS    Hyper Sport                    Mustang GT          2:03.279   0.495   2.261 103.959
14.  19 GS    Marcus Motorsports             Porsche 997         2:03.448   0.169   2.430 103.817
15.  88 GS    Ranger Sports Racing           Porsche 996         2:03.502   0.054   2.484 103.772
16.  38 GS    BGB Motorsports                Porsche 997         2:03.800   0.298   2.782 103.522
17.  89 GS    Ranger Sports Racing           Porsche 997         2:04.314   0.514   3.296 103.094
18.  39 GS    TRG                            Porsche 997         2:04.443   0.129   3.425 102.987
19.  10 GS    Spirit of Daytona Racing       Pontiac GTO         2:04.682   0.239   3.664 102.789
20.   9 GS    Spirit of Daytona Racing       Pontiac GTO         2:04.974   0.292   3.956 102.549
21. 150 GS    Jim Click Racing               Mustang GT          2:05.056   0.082   4.038 102.482
22.  20 GS    Marcus Motorsports             Porsche 997         2:05.720   0.664   4.702 101.941
23.  11 GS    Emerald Hill Motorsports       Mustang GT          2:05.818   0.098   4.800 101.861
24.  79 GS    Kinetic Motorsports            BMW M3              2:06.660   0.842   5.642 101.184
25.  80 GS    Kinetic Motorsports            BMW M3              2:07.067   0.407   6.049 100.860
26.  91 GS    Automatic Racing               BMW M3              2:07.262   0.195   6.244 100.706
27.  90 GS    Automatic Racing               BMW M3              2:07.805   0.543   6.787 100.278
28. 141 GS    ICY/Phoenix Racing             Subaru Legacy       2:11.314   3.509  10.296  97.598
29.  53 GS    Predator Auto Sport            Chevrolet Cobalt    2:11.354   0.040  10.336  97.568
30. 111 GS    ICY/Phoenix Racing             Subaru Legacy       2:11.391   0.037  10.373  97.541
31.  49 GS    Brass Mitchell Racing          BMW Z4              2:11.627   0.236  10.609  97.366
32.  74 GS    Compass360 Racing              Acura TSX           2:11.638   0.011  10.620  97.358
33.  01 GS    Georgian Bay Motorsports       Chevrolet Cobalt    2:11.755   0.117  10.737  97.271
34.  24 GS    V-Pack Motorsport              BMW 330i            2:11.820   0.065  10.802  97.223
35.  50 GS    Brass Mitchell Racing          Mazda RX-8          2:12.145   0.325  11.127  96.984
36. 138 GS    GS Motorsports                 Chevrolet Cobalt    2:12.224   0.079  11.206  96.926
37.  13 GS    Pipelayer Racing               Mazda RX-8          2:12.237   0.013  11.219  96.917
38.  63 GS    Roar Racing                    Mazda RX-8          2:12.383   0.146  11.365  96.810
39. 183 GS    GS Motorsports                 Chevrolet Cobalt    2:12.402   0.019  11.384  96.796
40.  00 GS    Georgian Bay Motorsports       Chevrolet Cobalt    2:12.525   0.123  11.507  96.706
41.  62 GS    Roar Racing                    Mazda RX-8          2:12.690   0.165  11.672  96.586
42.  75 GS    Compass360 Racing              Acura TSX           2:12.731   0.041  11.713  96.556
43.  43 GS    Team Sahlen                    Mazda RX-8          2:12.734   0.003  11.716  96.554
44.  06 GS    Project Motorsports            Chevrolet Cobalt    2:12.830   0.096  11.812  96.484
45. 146 GS    Performance Autosport          Mazda MX-5          2:13.366   0.536  12.348  96.096
46.  48 GS    Team Cobalt California         Chevrolet Cobalt    2:13.796   0.430  12.778  95.788
47. 171 GS    APR Motorsport                 Volkswagen GTI      2:14.807   1.011  13.789  95.069
48. 181 GS    APR Motorsport                 Volkswagen GTI      2:14.846   0.039  13.828  95.042
49. 191 GS    APR Motorsport                 Volkswagen GTI      2:15.970   1.124  14.952  94.256
50. 197 GS    RSR Motorsports                Mini Cooper S       2:16.033   0.063  15.015  94.212
51. 145 GS    Performance Autosport          Mazda MX-5          2:16.426   0.393  15.408  93.941
52.  33 GS    Kinetic Motorsports            BMW 330i            2:18.064   1.638  17.046  92.827
53.  36 GS    SDS Performance Racing         Dodge SRT4          2:23.122   5.058  22.104  89.546
54.  51 ST    Brass Mitchell Racing          Mazda RX-8          2:32.150   9.028  31.132  84.233

Write a comment
Show comments
About this article
Series Grand-Am
Drivers Jim Click
Teams Kinetic Motorsports , Rehagen Racing , Wright Motorsports , Compass360 Racing , Team Sahlen , Automatic Racing , Fall-Line Motorsports , Bodymotion Racing , Phoenix Racing